sensor_id;sensor_type;location;lat;lon;timestamp;P1;durP1;ratioP1;P2;durP2;ratioP2
13605;SDS011;6874;52.084;5.090;2023-04-03T00:01:09;42.27;;;40.90;;
13605;SDS011;6874;52.084;5.090;2023-04-03T00:03:35;42.57;;;41.17;;
13605;SDS011;6874;52.084;5.090;2023-04-03T00:06:02;42.13;;;40.73;;
13605;SDS011;6874;52.084;5.090;2023-04-03T00:08:28;43.27;;;41.83;;
13605;SDS011;6874;52.084;5.090;2023-04-03T00:10:56;42.23;;;40.83;;
13605;SDS011;6874;52.084;5.090;2023-04-03T00:13:22;39.23;;;37.93;;
13605;SDS011;6874;52.084;5.090;2023-04-03T00:15:48;38.50;;;37.27;;
13605;SDS011;6874;52.084;5.090;2023-04-03T00:18:14;37.67;;;36.43;;
13605;SDS011;6874;52.084;5.090;2023-04-03T00:20:40;37.40;;;36.17;;
13605;SDS011;6874;52.084;5.090;2023-04-03T00:23:06;36.53;;;35.33;;
13605;SDS011;6874;52.084;5.090;2023-04-03T00:25:32;33.07;;;32.00;;
13605;SDS011;6874;52.084;5.090;2023-04-03T00:27:58;32.97;;;31.90;;
13605;SDS011;6874;52.084;5.090;2023-04-03T00:30:23;32.73;;;31.67;;
13605;SDS011;6874;52.084;5.090;2023-04-03T00:32:49;33.20;;;32.13;;
13605;SDS011;6874;52.084;5.090;2023-04-03T00:35:16;36.73;;;35.53;;
13605;SDS011;6874;52.084;5.090;2023-04-03T00:37:44;31.77;;;30.73;;
13605;SDS011;6874;52.084;5.090;2023-04-03T00:40:10;32.27;;;31.23;;
13605;SDS011;6874;52.084;5.090;2023-04-03T00:42:39;26.40;;;25.57;;
13605;SDS011;6874;52.084;5.090;2023-04-03T00:47:31;28.80;;;27.87;;
13605;SDS011;6874;52.084;5.090;2023-04-03T00:49:57;24.60;;;23.83;;
13605;SDS011;6874;52.084;5.090;2023-04-03T00:52:25;24.80;;;24.03;;
13605;SDS011;6874;52.084;5.090;2023-04-03T00:54:55;25.27;;;24.47;;
13605;SDS011;6874;52.084;5.090;2023-04-03T00:57:24;22.93;;;22.20;;
13605;SDS011;6874;52.084;5.090;2023-04-03T00:59:52;24.30;;;23.53;;
13605;SDS011;6874;52.084;5.090;2023-04-03T01:02:22;22.10;;;21.40;;
13605;SDS011;6874;52.084;5.090;2023-04-03T01:04:48;20.37;;;19.73;;
13605;SDS011;6874;52.084;5.090;2023-04-03T01:07:24;19.20;;;18.57;;
13605;SDS011;6874;52.084;5.090;2023-04-03T01:09:54;18.73;;;18.17;;
13605;SDS011;6874;52.084;5.090;2023-04-03T01:12:27;19.10;;;18.50;;
13605;SDS011;6874;52.084;5.090;2023-04-03T01:15:07;16.07;;;15.57;;
13605;SDS011;6874;52.084;5.090;2023-04-03T01:17:42;15.60;;;15.13;;
13605;SDS011;6874;52.084;5.090;2023-04-03T01:25:38;16.93;;;16.43;;
13605;SDS011;6874;52.084;5.090;2023-04-03T01:28:10;15.60;;;15.10;;
13605;SDS011;6874;52.084;5.090;2023-04-03T01:30:43;15.30;;;14.83;;
13605;SDS011;6874;52.084;5.090;2023-04-03T01:33:41;13.17;;;12.77;;
13605;SDS011;6874;52.084;5.090;2023-04-03T01:36:10;15.63;;;15.17;;
13605;SDS011;6874;52.084;5.090;2023-04-03T01:38:40;13.53;;;13.13;;
13605;SDS011;6874;52.084;5.090;2023-04-03T01:41:06;13.07;;;12.67;;
13605;SDS011;6874;52.084;5.090;2023-04-03T01:43:31;14.50;;;14.07;;
13605;SDS011;6874;52.084;5.090;2023-04-03T01:45:57;13.57;;;13.17;;
13605;SDS011;6874;52.084;5.090;2023-04-03T01:48:23;13.20;;;12.80;;
13605;SDS011;6874;52.084;5.090;2023-04-03T01:50:48;13.93;;;13.53;;
13605;SDS011;6874;52.084;5.090;2023-04-03T01:53:14;13.47;;;13.07;;
13605;SDS011;6874;52.084;5.090;2023-04-03T01:55:40;12.33;;;11.97;;
13605;SDS011;6874;52.084;5.090;2023-04-03T01:58:05;11.80;;;11.47;;
13605;SDS011;6874;52.084;5.090;2023-04-03T02:00:31;10.60;;;10.30;;
13605;SDS011;6874;52.084;5.090;2023-04-03T02:02:56;12.13;;;11.77;;
13605;SDS011;6874;52.084;5.090;2023-04-03T02:05:22;11.50;;;11.17;;
13605;SDS011;6874;52.084;5.090;2023-04-03T02:07:48;11.27;;;10.93;;
13605;SDS011;6874;52.084;5.090;2023-04-03T02:10:13;10.87;;;10.57;;
13605;SDS011;6874;52.084;5.090;2023-04-03T02:12:39;11.40;;;11.07;;
13605;SDS011;6874;52.084;5.090;2023-04-03T02:15:05;10.20;;;9.90;;
13605;SDS011;6874;52.084;5.090;2023-04-03T02:17:31;10.30;;;10.00;;
13605;SDS011;6874;52.084;5.090;2023-04-03T02:19:57;10.07;;;9.77;;
13605;SDS011;6874;52.084;5.090;2023-04-03T02:22:22;10.47;;;10.17;;
13605;SDS011;6874;52.084;5.090;2023-04-03T02:24:48;9.20;;;8.93;;
13605;SDS011;6874;52.084;5.090;2023-04-03T02:27:14;9.43;;;9.13;;
13605;SDS011;6874;52.084;5.090;2023-04-03T02:29:40;9.33;;;9.03;;
13605;SDS011;6874;52.084;5.090;2023-04-03T02:32:06;8.93;;;8.67;;
13605;SDS011;6874;52.084;5.090;2023-04-03T02:34:32;8.93;;;8.67;;
13605;SDS011;6874;52.084;5.090;2023-04-03T02:36:57;8.27;;;8.07;;
13605;SDS011;6874;52.084;5.090;2023-04-03T02:39:23;8.93;;;8.67;;
13605;SDS011;6874;52.084;5.090;2023-04-03T02:41:48;8.63;;;8.40;;
13605;SDS011;6874;52.084;5.090;2023-04-03T02:44:14;8.50;;;8.27;;
13605;SDS011;6874;52.084;5.090;2023-04-03T02:46:40;8.30;;;8.10;;
13605;SDS011;6874;52.084;5.090;2023-04-03T02:49:05;7.47;;;7.27;;
13605;SDS011;6874;52.084;5.090;2023-04-03T02:51:31;8.27;;;8.07;;
13605;SDS011;6874;52.084;5.090;2023-04-03T02:53:57;7.80;;;7.60;;
13605;SDS011;6874;52.084;5.090;2023-04-03T02:56:22;7.50;;;7.30;;
13605;SDS011;6874;52.084;5.090;2023-04-03T02:58:48;8.53;;;8.33;;
13605;SDS011;6874;52.084;5.090;2023-04-03T03:01:14;8.30;;;8.10;;
13605;SDS011;6874;52.084;5.090;2023-04-03T03:03:40;7.10;;;6.90;;
13605;SDS011;6874;52.084;5.090;2023-04-03T03:06:07;7.23;;;7.03;;
13605;SDS011;6874;52.084;5.090;2023-04-03T03:08:34;7.27;;;7.07;;
13605;SDS011;6874;52.084;5.090;2023-04-03T03:11:01;7.33;;;7.13;;
13605;SDS011;6874;52.084;5.090;2023-04-03T03:13:28;7.03;;;6.83;;
13605;SDS011;6874;52.084;5.090;2023-04-03T03:15:53;8.00;;;7.80;;
13605;SDS011;6874;52.084;5.090;2023-04-03T03:18:19;7.10;;;6.90;;
13605;SDS011;6874;52.084;5.090;2023-04-03T03:20:45;7.13;;;6.93;;
13605;SDS011;6874;52.084;5.090;2023-04-03T03:23:11;7.77;;;7.57;;
13605;SDS011;6874;52.084;5.090;2023-04-03T03:25:40;6.77;;;6.57;;
13605;SDS011;6874;52.084;5.090;2023-04-03T03:28:06;7.63;;;7.43;;
13605;SDS011;6874;52.084;5.090;2023-04-03T03:30:32;7.60;;;7.40;;
13605;SDS011;6874;52.084;5.090;2023-04-03T03:32:58;6.83;;;6.63;;
13605;SDS011;6874;52.084;5.090;2023-04-03T03:35:23;7.43;;;7.23;;
13605;SDS011;6874;52.084;5.090;2023-04-03T03:37:49;8.03;;;7.83;;
13605;SDS011;6874;52.084;5.090;2023-04-03T03:40:15;6.80;;;6.60;;
13605;SDS011;6874;52.084;5.090;2023-04-03T03:42:41;7.43;;;7.23;;
13605;SDS011;6874;52.084;5.090;2023-04-03T03:45:06;7.30;;;7.10;;
13605;SDS011;6874;52.084;5.090;2023-04-03T03:47:32;6.70;;;6.50;;
13605;SDS011;6874;52.084;5.090;2023-04-03T03:49:58;6.70;;;6.50;;
13605;SDS011;6874;52.084;5.090;2023-04-03T03:52:24;6.30;;;6.10;;
13605;SDS011;6874;52.084;5.090;2023-04-03T03:54:50;6.80;;;6.60;;
13605;SDS011;6874;52.084;5.090;2023-04-03T03:57:15;7.10;;;6.90;;
13605;SDS011;6874;52.084;5.090;2023-04-03T03:59:41;6.10;;;5.90;;
13605;SDS011;6874;52.084;5.090;2023-04-03T04:02:08;6.30;;;6.10;;
13605;SDS011;6874;52.084;5.090;2023-04-03T04:04:35;6.40;;;6.20;;
13605;SDS011;6874;52.084;5.090;2023-04-03T04:07:01;7.03;;;6.83;;
13605;SDS011;6874;52.084;5.090;2023-04-03T04:09:27;6.90;;;6.70;;
13605;SDS011;6874;52.084;5.090;2023-04-03T04:11:52;6.70;;;6.50;;
13605;SDS011;6874;52.084;5.090;2023-04-03T04:14:18;6.60;;;6.40;;
13605;SDS011;6874;52.084;5.090;2023-04-03T04:16:45;6.73;;;6.53;;
13605;SDS011;6874;52.084;5.090;2023-04-03T04:19:12;6.80;;;6.60;;
13605;SDS011;6874;52.084;5.090;2023-04-03T04:21:37;6.70;;;6.50;;
13605;SDS011;6874;52.084;5.090;2023-04-03T04:24:04;6.70;;;6.50;;
13605;SDS011;6874;52.084;5.090;2023-04-03T04:26:30;6.80;;;6.60;;
13605;SDS011;6874;52.084;5.090;2023-04-03T04:28:56;6.40;;;6.20;;
13605;SDS011;6874;52.084;5.090;2023-04-03T04:31:21;6.40;;;6.20;;
13605;SDS011;6874;52.084;5.090;2023-04-03T04:33:47;6.30;;;6.10;;
13605;SDS011;6874;52.084;5.090;2023-04-03T04:36:13;7.10;;;6.90;;
13605;SDS011;6874;52.084;5.090;2023-04-03T04:38:39;5.97;;;5.77;;
13605;SDS011;6874;52.084;5.090;2023-04-03T04:41:05;6.03;;;5.83;;
13605;SDS011;6874;52.084;5.090;2023-04-03T04:43:31;7.13;;;6.93;;
13605;SDS011;6874;52.084;5.090;2023-04-03T04:46:01;6.03;;;5.83;;
13605;SDS011;6874;52.084;5.090;2023-04-03T04:48:28;5.20;;;5.10;;
13605;SDS011;6874;52.084;5.090;2023-04-03T04:50:53;6.87;;;6.67;;
13605;SDS011;6874;52.084;5.090;2023-04-03T04:53:19;6.47;;;6.27;;
13605;SDS011;6874;52.084;5.090;2023-04-03T04:55:45;5.10;;;5.00;;
13605;SDS011;6874;52.084;5.090;2023-04-03T04:58:10;6.40;;;6.20;;
13605;SDS011;6874;52.084;5.090;2023-04-03T05:00:36;5.80;;;5.60;;
13605;SDS011;6874;52.084;5.090;2023-04-03T05:03:02;6.17;;;5.97;;
13605;SDS011;6874;52.084;5.090;2023-04-03T05:05:27;6.30;;;6.10;;
13605;SDS011;6874;52.084;5.090;2023-04-03T05:07:53;6.10;;;5.90;;
13605;SDS011;6874;52.084;5.090;2023-04-03T05:10:19;5.50;;;5.40;;
13605;SDS011;6874;52.084;5.090;2023-04-03T05:12:45;6.47;;;6.27;;
13605;SDS011;6874;52.084;5.090;2023-04-03T05:15:11;6.10;;;5.90;;
13605;SDS011;6874;52.084;5.090;2023-04-03T05:17:37;5.80;;;5.63;;
13605;SDS011;6874;52.084;5.090;2023-04-03T05:20:03;6.73;;;6.53;;
13605;SDS011;6874;52.084;5.090;2023-04-03T05:22:29;6.37;;;6.17;;
13605;SDS011;6874;52.084;5.090;2023-04-03T05:24:55;6.67;;;6.47;;
13605;SDS011;6874;52.084;5.090;2023-04-03T05:27:21;6.40;;;6.20;;
13605;SDS011;6874;52.084;5.090;2023-04-03T05:29:48;5.97;;;5.77;;
13605;SDS011;6874;52.084;5.090;2023-04-03T05:32:14;6.00;;;5.80;;
13605;SDS011;6874;52.084;5.090;2023-04-03T05:34:40;6.37;;;6.17;;
13605;SDS011;6874;52.084;5.090;2023-04-03T05:37:06;5.60;;;5.50;;
13605;SDS011;6874;52.084;5.090;2023-04-03T05:39:31;5.40;;;5.30;;
13605;SDS011;6874;52.084;5.090;2023-04-03T05:41:58;5.67;;;5.57;;
13605;SDS011;6874;52.084;5.090;2023-04-03T05:44:23;6.10;;;5.90;;
13605;SDS011;6874;52.084;5.090;2023-04-03T05:46:49;6.20;;;6.00;;
13605;SDS011;6874;52.084;5.090;2023-04-03T05:49:14;5.90;;;5.70;;
13605;SDS011;6874;52.084;5.090;2023-04-03T05:51:40;6.03;;;5.83;;
13605;SDS011;6874;52.084;5.090;2023-04-03T05:54:09;6.17;;;5.97;;
13605;SDS011;6874;52.084;5.090;2023-04-03T05:56:42;6.47;;;6.27;;
13605;SDS011;6874;52.084;5.090;2023-04-03T05:59:08;5.93;;;5.73;;
13605;SDS011;6874;52.084;5.090;2023-04-03T06:01:34;6.20;;;6.00;;
13605;SDS011;6874;52.084;5.090;2023-04-03T06:03:59;6.40;;;6.20;;
13605;SDS011;6874;52.084;5.090;2023-04-03T06:06:25;6.23;;;6.03;;
13605;SDS011;6874;52.084;5.090;2023-04-03T06:09:07;6.47;;;6.27;;
13605;SDS011;6874;52.084;5.090;2023-04-03T06:11:33;5.00;;;4.90;;
13605;SDS011;6874;52.084;5.090;2023-04-03T06:13:58;5.10;;;5.00;;
13605;SDS011;6874;52.084;5.090;2023-04-03T06:16:24;6.37;;;6.17;;
13605;SDS011;6874;52.084;5.090;2023-04-03T06:18:49;6.00;;;5.80;;
13605;SDS011;6874;52.084;5.090;2023-04-03T06:21:15;5.90;;;5.70;;
13605;SDS011;6874;52.084;5.090;2023-04-03T06:23:41;5.43;;;5.33;;
13605;SDS011;6874;52.084;5.090;2023-04-03T06:26:06;6.50;;;6.30;;
13605;SDS011;6874;52.084;5.090;2023-04-03T06:28:32;5.93;;;5.73;;
13605;SDS011;6874;52.084;5.090;2023-04-03T06:30:57;7.03;;;6.83;;
13605;SDS011;6874;52.084;5.090;2023-04-03T06:33:23;6.30;;;6.10;;
13605;SDS011;6874;52.084;5.090;2023-04-03T06:35:49;6.70;;;6.50;;
13605;SDS011;6874;52.084;5.090;2023-04-03T06:38:15;7.33;;;7.13;;
13605;SDS011;6874;52.084;5.090;2023-04-03T06:40:41;6.47;;;6.27;;
13605;SDS011;6874;52.084;5.090;2023-04-03T06:43:06;6.20;;;6.00;;
13605;SDS011;6874;52.084;5.090;2023-04-03T06:45:32;7.53;;;7.33;;
13605;SDS011;6874;52.084;5.090;2023-04-03T06:47:58;7.57;;;7.37;;
13605;SDS011;6874;52.084;5.090;2023-04-03T06:50:23;7.43;;;7.23;;
13605;SDS011;6874;52.084;5.090;2023-04-03T06:52:49;8.03;;;7.83;;
13605;SDS011;6874;52.084;5.090;2023-04-03T06:55:16;8.07;;;7.87;;
13605;SDS011;6874;52.084;5.090;2023-04-03T06:57:42;7.80;;;7.60;;
13605;SDS011;6874;52.084;5.090;2023-04-03T07:00:08;7.03;;;6.83;;
13605;SDS011;6874;52.084;5.090;2023-04-03T07:02:36;7.60;;;7.40;;
13605;SDS011;6874;52.084;5.090;2023-04-03T07:05:01;7.60;;;7.40;;
13605;SDS011;6874;52.084;5.090;2023-04-03T07:07:27;8.23;;;8.03;;
13605;SDS011;6874;52.084;5.090;2023-04-03T07:09:53;7.30;;;7.10;;
13605;SDS011;6874;52.084;5.090;2023-04-03T07:12:19;9.10;;;8.80;;
13605;SDS011;6874;52.084;5.090;2023-04-03T07:14:44;8.13;;;7.93;;
13605;SDS011;6874;52.084;5.090;2023-04-03T07:17:10;8.23;;;8.03;;
13605;SDS011;6874;52.084;5.090;2023-04-03T07:19:36;7.53;;;7.33;;
13605;SDS011;6874;52.084;5.090;2023-04-03T07:22:01;8.53;;;8.33;;
13605;SDS011;6874;52.084;5.090;2023-04-03T07:24:27;8.00;;;7.80;;
13605;SDS011;6874;52.084;5.090;2023-04-03T07:26:52;7.17;;;6.97;;
13605;SDS011;6874;52.084;5.090;2023-04-03T07:29:19;9.50;;;9.20;;
13605;SDS011;6874;52.084;5.090;2023-04-03T07:31:46;8.57;;;8.37;;
13605;SDS011;6874;52.084;5.090;2023-04-03T07:34:12;8.90;;;8.60;;
13605;SDS011;6874;52.084;5.090;2023-04-03T07:36:38;9.00;;;8.70;;
13605;SDS011;6874;52.084;5.090;2023-04-03T07:39:03;8.63;;;8.43;;
13605;SDS011;6874;52.084;5.090;2023-04-03T07:41:29;8.00;;;7.80;;
13605;SDS011;6874;52.084;5.090;2023-04-03T07:43:57;9.00;;;8.70;;
13605;SDS011;6874;52.084;5.090;2023-04-03T07:46:23;9.80;;;9.50;;
13605;SDS011;6874;52.084;5.090;2023-04-03T07:48:49;10.20;;;9.90;;
13605;SDS011;6874;52.084;5.090;2023-04-03T07:51:14;9.70;;;9.40;;
13605;SDS011;6874;52.084;5.090;2023-04-03T07:53:41;9.70;;;9.40;;
13605;SDS011;6874;52.084;5.090;2023-04-03T07:56:07;8.70;;;8.47;;
13605;SDS011;6874;52.084;5.090;2023-04-03T07:58:33;9.80;;;9.50;;
13605;SDS011;6874;52.084;5.090;2023-04-03T08:00:59;10.13;;;9.83;;
13605;SDS011;6874;52.084;5.090;2023-04-03T08:03:25;9.43;;;9.13;;
13605;SDS011;6874;52.084;5.090;2023-04-03T08:05:50;9.93;;;9.63;;
13605;SDS011;6874;52.084;5.090;2023-04-03T08:08:18;10.27;;;9.97;;
13605;SDS011;6874;52.084;5.090;2023-04-03T08:10:52;9.50;;;9.20;;
13605;SDS011;6874;52.084;5.090;2023-04-03T08:13:19;10.23;;;9.93;;
13605;SDS011;6874;52.084;5.090;2023-04-03T08:15:45;9.70;;;9.40;;
13605;SDS011;6874;52.084;5.090;2023-04-03T08:18:11;10.40;;;10.10;;
13605;SDS011;6874;52.084;5.090;2023-04-03T08:20:38;10.50;;;10.20;;
13605;SDS011;6874;52.084;5.090;2023-04-03T08:23:05;11.10;;;10.80;;
13605;SDS011;6874;52.084;5.090;2023-04-03T08:25:31;10.20;;;9.90;;
13605;SDS011;6874;52.084;5.090;2023-04-03T08:27:58;11.23;;;10.93;;
13605;SDS011;6874;52.084;5.090;2023-04-03T08:30:23;10.03;;;9.73;;
13605;SDS011;6874;52.084;5.090;2023-04-03T08:32:49;10.23;;;9.93;;
13605;SDS011;6874;52.084;5.090;2023-04-03T08:35:14;11.70;;;11.37;;
13605;SDS011;6874;52.084;5.090;2023-04-03T08:37:40;10.87;;;10.57;;
13605;SDS011;6874;52.084;5.090;2023-04-03T08:40:06;10.30;;;10.00;;
13605;SDS011;6874;52.084;5.090;2023-04-03T08:45:10;11.13;;;10.83;;
13605;SDS011;6874;52.084;5.090;2023-04-03T08:47:49;10.53;;;10.23;;
13605;SDS011;6874;52.084;5.090;2023-04-03T08:50:23;9.07;;;8.77;;
13605;SDS011;6874;52.084;5.090;2023-04-03T08:52:57;8.97;;;8.70;;
13605;SDS011;6874;52.084;5.090;2023-04-03T08:55:28;10.57;;;10.27;;
13605;SDS011;6874;52.084;5.090;2023-04-03T08:58:05;10.67;;;10.37;;
13605;SDS011;6874;52.084;5.090;2023-04-03T09:03:32;10.83;;;10.53;;
13605;SDS011;6874;52.084;5.090;2023-04-03T09:06:11;11.83;;;11.47;;
13605;SDS011;6874;52.084;5.090;2023-04-03T09:08:43;11.50;;;11.20;;
13605;SDS011;6874;52.084;5.090;2023-04-03T09:11:25;12.00;;;11.63;;
13605;SDS011;6874;52.084;5.090;2023-04-03T09:13:59;10.87;;;10.57;;
13605;SDS011;6874;52.084;5.090;2023-04-03T09:17:27;11.63;;;11.33;;
13605;SDS011;6874;52.084;5.090;2023-04-03T09:22:21;11.43;;;11.13;;
13605;SDS011;6874;52.084;5.090;2023-04-03T09:24:53;12.03;;;11.70;;
13605;SDS011;6874;52.084;5.090;2023-04-03T09:27:35;12.63;;;12.23;;
13605;SDS011;6874;52.084;5.090;2023-04-03T09:30:01;11.73;;;11.43;;
13605;SDS011;6874;52.084;5.090;2023-04-03T09:32:28;11.47;;;11.17;;
13605;SDS011;6874;52.084;5.090;2023-04-03T09:35:03;13.00;;;12.60;;
13605;SDS011;6874;52.084;5.090;2023-04-03T09:37:50;13.73;;;13.33;;
13605;SDS011;6874;52.084;5.090;2023-04-03T09:40:28;13.90;;;13.50;;
13605;SDS011;6874;52.084;5.090;2023-04-03T09:42:57;13.53;;;13.13;;
13605;SDS011;6874;52.084;5.090;2023-04-03T09:45:29;14.20;;;13.80;;
13605;SDS011;6874;52.084;5.090;2023-04-03T09:48:08;13.37;;;12.97;;
13605;SDS011;6874;52.084;5.090;2023-04-03T09:56:00;14.57;;;14.17;;
13605;SDS011;6874;52.084;5.090;2023-04-03T10:06:44;23.93;;;23.20;;
13605;SDS011;6874;52.084;5.090;2023-04-03T10:12:04;42.37;;;41.00;;
13605;SDS011;6874;52.084;5.090;2023-04-03T10:15:14;50.27;;;48.63;;
13605;SDS011;6874;52.084;5.090;2023-04-03T10:25:51;44.40;;;43.00;;
13605;SDS011;6874;52.084;5.090;2023-04-03T10:28:53;34.07;;;32.97;;
13605;SDS011;6874;52.084;5.090;2023-04-03T10:34:06;19.17;;;18.60;;
13605;SDS011;6874;52.084;5.090;2023-04-03T10:42:42;28.40;;;27.50;;
13605;SDS011;6874;52.084;5.090;2023-04-03T10:45:19;31.03;;;30.03;;
13605;SDS011;6874;52.084;5.090;2023-04-03T10:56:32;29.67;;;28.73;;
13605;SDS011;6874;52.084;5.090;2023-04-03T10:59:25;23.63;;;22.90;;
13605;SDS011;6874;52.084;5.090;2023-04-03T11:04:46;19.63;;;19.03;;
13605;SDS011;6874;52.084;5.090;2023-04-03T11:07:18;23.83;;;23.07;;
13605;SDS011;6874;52.084;5.090;2023-04-03T11:09:48;35.27;;;34.13;;
13605;SDS011;6874;52.084;5.090;2023-04-03T11:12:21;43.33;;;41.93;;
13605;SDS011;6874;52.084;5.090;2023-04-03T11:15:01;47.40;;;45.83;;
13605;SDS011;6874;52.084;5.090;2023-04-03T11:17:31;49.40;;;47.80;;
13605;SDS011;6874;52.084;5.090;2023-04-03T11:20:13;41.70;;;40.33;;
13605;SDS011;6874;52.084;5.090;2023-04-03T11:22:48;42.73;;;41.33;;
13605;SDS011;6874;52.084;5.090;2023-04-03T11:25:24;45.67;;;44.20;;
13605;SDS011;6874;52.084;5.090;2023-04-03T11:27:57;39.93;;;38.63;;
13605;SDS011;6874;52.084;5.090;2023-04-03T11:36:46;74.47;;;72.03;;
13605;SDS011;6874;52.084;5.090;2023-04-03T11:39:31;74.67;;;72.20;;
13605;SDS011;6874;52.084;5.090;2023-04-03T11:44:51;68.10;;;65.90;;
13605;SDS011;6874;52.084;5.090;2023-04-03T12:05:56;143.87;;;138.77;;
13605;SDS011;6874;52.084;5.090;2023-04-03T12:08:45;136.50;;;131.63;;
13605;SDS011;6874;52.084;5.090;2023-04-03T12:16:30;152.87;;;147.57;;
13605;SDS011;6874;52.084;5.090;2023-04-03T12:32:49;149.07;;;144.00;;
13605;SDS011;6874;52.084;5.090;2023-04-03T12:35:28;141.70;;;136.90;;
13605;SDS011;6874;52.084;5.090;2023-04-03T12:40:36;118.97;;;115.00;;
13605;SDS011;6874;52.084;5.090;2023-04-03T12:48:29;120.47;;;116.50;;
13605;SDS011;6874;52.084;5.090;2023-04-03T12:50:57;126.63;;;122.47;;
13605;SDS011;6874;52.084;5.090;2023-04-03T12:53:25;132.93;;;128.53;;
13605;SDS011;6874;52.084;5.090;2023-04-03T12:58:52;122.53;;;118.47;;
13605;SDS011;6874;52.084;5.090;2023-04-03T13:01:24;123.93;;;119.80;;
13605;SDS011;6874;52.084;5.090;2023-04-03T13:03:54;126.60;;;122.43;;
13605;SDS011;6874;52.084;5.090;2023-04-03T13:06:23;131.77;;;127.37;;
13605;SDS011;6874;52.084;5.090;2023-04-03T13:08:55;132.07;;;127.63;;
13605;SDS011;6874;52.084;5.090;2023-04-03T13:11:24;128.00;;;123.70;;
13605;SDS011;6874;52.084;5.090;2023-04-03T13:14:05;128.00;;;123.70;;
13605;SDS011;6874;52.084;5.090;2023-04-03T13:16:40;127.37;;;123.10;;
13605;SDS011;6874;52.084;5.090;2023-04-03T13:19:06;122.87;;;118.77;;
13605;SDS011;6874;52.084;5.090;2023-04-03T13:21:42;117.40;;;113.47;;
13605;SDS011;6874;52.084;5.090;2023-04-03T13:24:09;111.70;;;108.00;;
13605;SDS011;6874;52.084;5.090;2023-04-03T13:26:35;105.67;;;102.17;;
13605;SDS011;6874;52.084;5.090;2023-04-03T13:29:02;90.87;;;87.87;;
13605;SDS011;6874;52.084;5.090;2023-04-03T13:31:35;94.30;;;91.20;;
13605;SDS011;6874;52.084;5.090;2023-04-03T13:34:04;124.77;;;120.57;;
13605;SDS011;6874;52.084;5.090;2023-04-03T13:36:34;146.13;;;141.13;;
13605;SDS011;6874;52.084;5.090;2023-04-03T13:41:53;132.03;;;127.57;;
13605;SDS011;6874;52.084;5.090;2023-04-03T13:46:50;128.13;;;123.80;;
13605;SDS011;6874;52.084;5.090;2023-04-03T13:49:40;105.87;;;102.23;;
13605;SDS011;6874;52.084;5.090;2023-04-03T13:52:31;88.20;;;85.20;;
13605;SDS011;6874;52.084;5.090;2023-04-03T13:55:23;87.03;;;84.07;;
13605;SDS011;6874;52.084;5.090;2023-04-03T13:58:01;84.00;;;81.13;;
13605;SDS011;6874;52.084;5.090;2023-04-03T14:00:36;90.10;;;87.03;;
13605;SDS011;6874;52.084;5.090;2023-04-03T14:04:10;85.80;;;82.90;;
13605;SDS011;6874;52.084;5.090;2023-04-03T14:06:12;87.27;;;84.27;;
13605;SDS011;6874;52.084;5.090;2023-04-03T14:08:41;71.07;;;68.67;;
13605;SDS011;6874;52.084;5.090;2023-04-03T14:11:11;97.53;;;94.30;;
13605;SDS011;6874;52.084;5.090;2023-04-03T14:13:49;83.03;;;80.30;;
13605;SDS011;6874;52.084;5.090;2023-04-03T14:16:17;93.60;;;90.50;;
13605;SDS011;6874;52.084;5.090;2023-04-03T14:18:45;97.77;;;94.47;;
13605;SDS011;6874;52.084;5.090;2023-04-03T14:21:12;106.13;;;102.53;;
13605;SDS011;6874;52.084;5.090;2023-04-03T14:23:39;67.30;;;65.07;;
13605;SDS011;6874;52.084;5.090;2023-04-03T14:26:09;70.80;;;68.47;;
13605;SDS011;6874;52.084;5.090;2023-04-03T14:28:41;59.40;;;57.47;;
13605;SDS011;6874;52.084;5.090;2023-04-03T14:31:08;70.50;;;68.20;;
13605;SDS011;6874;52.084;5.090;2023-04-03T14:33:35;92.57;;;89.53;;
13605;SDS011;6874;52.084;5.090;2023-04-03T14:36:05;94.93;;;91.80;;
13605;SDS011;6874;52.084;5.090;2023-04-03T14:38:38;102.23;;;98.83;;
13605;SDS011;6874;52.084;5.090;2023-04-03T14:41:04;108.47;;;104.80;;
13605;SDS011;6874;52.084;5.090;2023-04-03T14:43:30;105.83;;;102.27;;
13605;SDS011;6874;52.084;5.090;2023-04-03T14:45:56;104.03;;;100.43;;
13605;SDS011;6874;52.084;5.090;2023-04-03T14:48:23;97.13;;;93.83;;
13605;SDS011;6874;52.084;5.090;2023-04-03T14:50:52;98.37;;;95.00;;
13605;SDS011;6874;52.084;5.090;2023-04-03T14:53:18;98.67;;;95.30;;
13605;SDS011;6874;52.084;5.090;2023-04-03T14:55:47;92.83;;;89.63;;
13605;SDS011;6874;52.084;5.090;2023-04-03T14:58:14;88.93;;;85.93;;
13605;SDS011;6874;52.084;5.090;2023-04-03T15:00:41;70.27;;;67.90;;
13605;SDS011;6874;52.084;5.090;2023-04-03T15:03:09;48.20;;;46.63;;
13605;SDS011;6874;52.084;5.090;2023-04-03T15:05:46;28.40;;;27.50;;
13605;SDS011;6874;52.084;5.090;2023-04-03T15:08:20;38.33;;;37.10;;
13605;SDS011;6874;52.084;5.090;2023-04-03T15:10:48;42.17;;;40.77;;
13605;SDS011;6874;52.084;5.090;2023-04-03T15:13:14;43.17;;;41.77;;
13605;SDS011;6874;52.084;5.090;2023-04-03T15:15:40;45.87;;;44.37;;
13605;SDS011;6874;52.084;5.090;2023-04-03T15:18:07;56.03;;;54.13;;
13605;SDS011;6874;52.084;5.090;2023-04-03T15:20:38;71.93;;;69.53;;
13605;SDS011;6874;52.084;5.090;2023-04-03T15:23:04;58.97;;;57.03;;
13605;SDS011;6874;52.084;5.090;2023-04-03T15:25:31;67.50;;;65.23;;
13605;SDS011;6874;52.084;5.090;2023-04-03T15:27:57;83.53;;;80.77;;
13605;SDS011;6874;52.084;5.090;2023-04-03T15:30:23;86.27;;;83.40;;
13605;SDS011;6874;52.084;5.090;2023-04-03T15:32:49;85.00;;;82.17;;
13605;SDS011;6874;52.084;5.090;2023-04-03T15:35:15;66.53;;;64.37;;
13605;SDS011;6874;52.084;5.090;2023-04-03T15:37:41;61.67;;;59.63;;
13605;SDS011;6874;52.084;5.090;2023-04-03T15:40:07;60.00;;;57.97;;
13605;SDS011;6874;52.084;5.090;2023-04-03T15:42:33;63.07;;;60.87;;
13605;SDS011;6874;52.084;5.090;2023-04-03T15:44:59;67.63;;;65.23;;
13605;SDS011;6874;52.084;5.090;2023-04-03T15:47:25;84.23;;;81.30;;
13605;SDS011;6874;52.084;5.090;2023-04-03T15:49:52;104.00;;;100.30;;
13605;SDS011;6874;52.084;5.090;2023-04-03T15:52:18;101.33;;;97.77;;
13605;SDS011;6874;52.084;5.090;2023-04-03T15:54:44;89.77;;;86.63;;
13605;SDS011;6874;52.084;5.090;2023-04-03T15:57:10;92.13;;;88.90;;
13605;SDS011;6874;52.084;5.090;2023-04-03T15:59:35;85.43;;;82.47;;
13605;SDS011;6874;52.084;5.090;2023-04-03T16:02:01;77.83;;;75.13;;
13605;SDS011;6874;52.084;5.090;2023-04-03T16:04:31;68.70;;;66.30;;
13605;SDS011;6874;52.084;5.090;2023-04-03T16:07:00;44.83;;;43.30;;
13605;SDS011;6874;52.084;5.090;2023-04-03T16:09:28;39.60;;;38.30;;
13605;SDS011;6874;52.084;5.090;2023-04-03T16:11:55;58.03;;;56.03;;
13605;SDS011;6874;52.084;5.090;2023-04-03T16:14:21;55.10;;;53.23;;
13605;SDS011;6874;52.084;5.090;2023-04-03T16:16:46;41.80;;;40.43;;
13605;SDS011;6874;52.084;5.090;2023-04-03T16:19:12;29.97;;;29.00;;
13605;SDS011;6874;52.084;5.090;2023-04-03T16:21:38;44.63;;;43.13;;
13605;SDS011;6874;52.084;5.090;2023-04-03T16:24:04;45.10;;;43.60;;
13605;SDS011;6874;52.084;5.090;2023-04-03T16:26:30;49.33;;;47.67;;
13605;SDS011;6874;52.084;5.090;2023-04-03T16:28:56;43.17;;;41.73;;
13605;SDS011;6874;52.084;5.090;2023-04-03T16:31:22;42.53;;;41.13;;
13605;SDS011;6874;52.084;5.090;2023-04-03T16:33:49;36.30;;;35.10;;
13605;SDS011;6874;52.084;5.090;2023-04-03T16:36:15;31.20;;;30.20;;
13605;SDS011;6874;52.084;5.090;2023-04-03T16:38:41;27.77;;;26.87;;
13605;SDS011;6874;52.084;5.090;2023-04-03T16:41:06;46.37;;;44.83;;
13605;SDS011;6874;52.084;5.090;2023-04-03T16:43:32;31.57;;;30.57;;
13605;SDS011;6874;52.084;5.090;2023-04-03T16:45:58;36.77;;;35.60;;
13605;SDS011;6874;52.084;5.090;2023-04-03T16:48:24;46.77;;;45.23;;
13605;SDS011;6874;52.084;5.090;2023-04-03T16:50:50;37.70;;;36.47;;
13605;SDS011;6874;52.084;5.090;2023-04-03T16:53:18;37.13;;;35.93;;
13605;SDS011;6874;52.084;5.090;2023-04-03T16:55:48;36.97;;;35.77;;